Time;durP1;ratioP1;P1;durP2;ratioP2;P2;SDS_P1;SDS_P2;PMS_P1;PMS_P2;Temp;Humidity;BMP_temperature;BMP_pressure;BME280_temperature;BME280_humidity;BME280_pressure;Samples;Min_cycle;Max_cycle;Signal;HPM_P1;HPM_P2
2022/10/16 00:01:13;;;;;;;;;3.50;1.75;;;;;13.71;73.90;100825.06;4941589;28;8929;-64
2022/10/16 00:03:41;;;;;;;;;2.00;2.00;;;;;13.67;73.95;100827.34;4943754;28;8845;-64
2022/10/16 00:06:09;;;;;;;;;2.00;2.00;;;;;13.69;74.06;100819.84;4947167;28;8954;-64
2022/10/16 00:08:37;;;;;;;;;2.00;2.00;;;;;13.67;74.13;100819.25;4954805;28;9038;-64
2022/10/16 00:11:15;;;;;;;;;1.00;1.00;;;;;13.67;73.92;100815.72;4940672;28;9001;-64
2022/10/16 00:13:43;;;;;;;;;1.00;1.00;;;;;13.71;73.65;100814.22;4942517;29;9063;-64
2022/10/16 00:16:11;;;;;;;;;2.67;1.00;;;;;13.66;73.65;100808.66;4937082;29;9623;-64
2022/10/16 00:18:38;;;;;;;;;1.00;1.00;;;;;13.70;73.78;100816.13;4949971;28;8926;-64
2022/10/16 00:21:10;;;;;;;;;2.00;2.00;;;;;13.71;73.58;100825.88;4952719;28;8862;-64
2022/10/16 00:23:37;;;;;;;;;1.50;1.50;;;;;13.68;73.62;100831.72;4950734;28;8849;-64
2022/10/16 00:26:07;;;;;;;;;2.00;2.00;;;;;13.69;73.59;100825.25;4939190;28;8853;-64
2022/10/16 00:28:35;;;;;;;;;3.33;2.00;;;;;13.71;73.50;100834.00;4935841;29;9026;-64
2022/10/16 00:31:06;;;;;;;;;3.00;3.00;;;;;13.69;73.33;100825.25;4936366;29;8948;-64
2022/10/16 00:33:33;;;;;;;;;1.00;1.00;;;;;13.71;73.52;100831.28;4953940;28;9022;-65
2022/10/16 00:36:00;;;;;;;;;1.00;1.00;;;;;13.71;73.28;100834.00;4953297;28;9033;-65
2022/10/16 00:38:27;;;;;;;;;2.75;2.75;;;;;13.67;73.12;100830.06;4942364;28;9786;-64
2022/10/16 00:40:53;;;;;;;;;7.33;5.67;;;;;13.64;73.08;100824.25;4937416;28;8854;-65
2022/10/16 00:43:40;;;;;;;;;1.67;1.67;;;;;13.65;73.17;100826.72;4950514;28;9041;-65
2022/10/16 00:46:21;;;;;;;;;2.00;2.00;;;;;13.67;72.76;100815.72;4938258;28;9023;-65
2022/10/16 00:49:00;;;;;;;;;3.00;2.33;;;;;13.66;72.64;100817.59;4953115;28;9002;-64
2022/10/16 00:51:36;;;;;;;;;2.00;2.00;;;;;13.62;73.06;100826.34;4951045;28;9012;-65
2022/10/16 00:54:07;;;;;;;;;2.00;2.00;;;;;13.57;72.88;100817.00;4949436;28;9058;-64
2022/10/16 00:56:34;;;;;;;;;3.67;3.67;;;;;13.53;72.91;100817.63;4942673;28;8998;-65
2022/10/16 00:59:06;;;;;;;;;3.33;3.33;;;;;13.52;72.78;100818.69;4953735;28;9078;-65
2022/10/16 01:01:32;;;;;;;;;3.67;3.67;;;;;13.55;72.95;100821.78;4941923;28;9116;-65
2022/10/16 01:03:59;;;;;;;;;3.00;3.00;;;;;13.58;72.82;100817.84;4949755;28;9107;-65
2022/10/16 01:06:41;;;;;;;;;9.33;9.00;;;;;13.62;72.86;100818.25;4952857;28;9951;-64
2022/10/16 01:09:23;;;;;;;;;14.00;10.67;;;;;13.60;73.13;100830.06;4953486;28;9338;-65
2022/10/16 01:12:00;;;;;;;;;4.67;3.33;;;;;13.58;73.29;100824.06;4941767;29;9247;-65
2022/10/16 01:14:40;;;;;;;;;7.00;6.00;;;;;13.58;73.08;100828.66;4942360;28;9016;-65
2022/10/16 01:17:28;;;;;;;;;8.00;8.00;;;;;13.59;73.02;100835.72;4946776;28;9209;-64
2022/10/16 01:20:07;;;;;;;;;3.33;3.33;;;;;13.52;72.92;100833.03;4946060;28;9327;-64
2022/10/16 01:23:03;;;;;;;;;4.00;4.00;;;;;13.46;73.45;100825.78;4935921;29;9031;-65
2022/10/16 01:26:04;;;;;;;;;1.00;1.00;;;;;13.46;73.24;100825.78;4937049;28;9097;-65
2022/10/16 01:28:37;;;;;;;;;4.33;3.67;;;;;13.44;73.34;100829.72;4942436;28;8949;-65
2022/10/16 01:31:04;;;;;;;;;4.67;4.00;;;;;13.45;73.19;100826.84;4951283;28;9091;-65
2022/10/16 01:33:40;;;;;;;;;2.00;2.00;;;;;13.43;73.05;100823.50;4953886;28;9181;-64
2022/10/16 01:36:18;;;;;;;;;2.00;2.00;;;;;13.47;73.31;100822.03;4970275;28;9732;-64
2022/10/16 01:38:48;;;;;;;;;0.00;0.00;;;;;13.47;73.01;100816.63;4945295;29;9023;-63
2022/10/16 01:41:21;;;;;;;;;2.33;2.00;;;;;13.46;73.10;100827.66;4935618;29;9730;-65
2022/10/16 01:44:02;;;;;;;;;1.00;1.00;;;;;13.52;73.37;100832.19;4942063;28;8960;-65
2022/10/16 01:46:31;;;;;;;;;3.00;1.00;;;;;13.54;73.35;100824.72;4949234;28;9101;-66
2022/10/16 01:49:00;;;;;;;;;2.00;2.00;;;;;13.50;73.55;100829.72;4952199;28;9201;-65
2022/10/16 01:51:29;;;;;;;;;2.00;2.00;;;;;13.50;73.26;100829.72;4934051;29;9048;-64
2022/10/16 01:53:59;;;;;;;;;3.00;2.00;;;;;13.45;73.88;100825.97;4946310;28;8939;-64
2022/10/16 01:56:28;;;;;;;;;1.33;1.00;;;;;13.48;73.90;100826.38;4951479;28;8944;-64
2022/10/16 01:59:10;;;;;;;;;1.00;1.00;;;;;13.53;73.96;100826.59;4965365;28;8956;-64
2022/10/16 02:01:40;;;;;;;;;3.00;2.00;;;;;13.55;74.02;100831.78;4943506;28;9227;-65
2022/10/16 02:04:31;;;;;;;;;1.00;1.00;;;;;13.53;74.10;100840.13;4952652;28;9341;-65
2022/10/16 02:06:58;;;;;;;;;1.67;1.67;;;;;13.54;73.99;100835.53;4935088;28;9064;-65
2022/10/16 02:09:25;;;;;;;;;1.67;1.67;;;;;13.56;74.30;100842.38;4934649;28;9186;-65
2022/10/16 02:11:56;;;;;;;;;2.00;2.00;;;;;13.57;74.22;100840.50;4936806;28;9802;-65
2022/10/16 02:14:24;;;;;;;;;3.00;1.25;;;;;13.53;74.25;100839.25;4940941;28;9062;-64
2022/10/16 02:16:50;;;;;;;;;2.33;1.00;;;;;13.50;74.88;100845.94;4948330;28;8847;-64
2022/10/16 02:19:20;;;;;;;;;1.67;1.00;;;;;13.49;74.74;100846.13;4941646;28;8952;-64
2022/10/16 02:21:53;;;;;;;;;1.00;1.00;;;;;13.51;74.98;100844.06;4933776;29;8993;-64
2022/10/16 02:24:36;;;;;;;;;2.00;2.00;;;;;13.51;75.28;100847.59;4939870;28;8957;-65
2022/10/16 02:27:15;;;;;;;;;4.67;3.33;;;;;13.42;75.53;100853.47;4946210;28;9046;-65
2022/10/16 02:29:50;;;;;;;;;2.00;1.00;;;;;13.39;75.79;100859.28;4944057;28;8942;-65
2022/10/16 02:32:21;;;;;;;;;2.00;1.33;;;;;13.36;76.01;100849.72;4951903;28;8967;-65
2022/10/16 02:34:50;;;;;;;;;2.00;2.00;;;;;13.36;76.39;100855.13;4950978;28;9211;-64
2022/10/16 02:37:18;;;;;;;;;1.00;1.00;;;;;13.43;76.39;100857.81;4943900;28;9122;-65
2022/10/16 02:39:44;;;;;;;;;0.67;0.67;;;;;13.42;76.19;100862.41;4943843;28;9181;-65
2022/10/16 02:42:14;;;;;;;;;2.00;2.00;;;;;13.44;76.36;100862.19;4943035;28;9034;-64
2022/10/16 02:44:41;;;;;;;;;1.00;0.33;;;;;13.38;76.60;100866.56;4947764;28;9204;-64
2022/10/16 02:47:07;;;;;;;;;3.67;1.00;;;;;13.38;76.45;100863.88;4950382;28;9223;-64
2022/10/16 02:49:34;;;;;;;;;2.00;2.00;;;;;13.34;76.51;100874.28;4941780;29;8934;-64
2022/10/16 02:52:01;;;;;;;;;4.33;2.33;;;;;13.30;76.53;100873.03;4933349;29;9127;-64
2022/10/16 02:54:27;;;;;;;;;2.00;2.00;;;;;13.31;76.89;100865.75;4934352;28;9112;-64
2022/10/16 02:56:53;;;;;;;;;4.00;1.33;;;;;13.26;77.13;100869.09;4945789;28;9167;-64
2022/10/16 02:59:20;;;;;;;;;1.00;1.00;;;;;13.30;76.94;100872.22;4950103;28;9847;-65
2022/10/16 03:01:47;;;;;;;;;2.00;1.33;;;;;13.28;77.14;100883.22;4933073;29;9208;-65
2022/10/16 03:04:13;;;;;;;;;1.00;1.00;;;;;13.31;76.97;100877.41;4934317;28;9101;-64
2022/10/16 03:06:40;;;;;;;;;3.00;2.00;;;;;13.34;76.93;100879.69;4954931;28;9287;-64
2022/10/16 03:09:06;;;;;;;;;5.00;3.00;;;;;13.35;77.07;100872.41;4951581;28;9175;-62
2022/10/16 03:11:33;;;;;;;;;5.67;3.00;;;;;13.34;76.60;100874.28;4940104;28;9091;-65
2022/10/16 03:13:59;;;;;;;;;3.00;3.00;;;;;13.30;76.91;100870.34;4951816;28;9074;-64
2022/10/16 03:16:25;;;;;;;;;6.00;4.33;;;;;13.24;77.01;100871.16;4943231;28;9181;-65
2022/10/16 03:18:52;;;;;;;;;5.00;3.00;;;;;13.24;77.30;100864.94;4952260;28;9271;-65
2022/10/16 03:21:18;;;;;;;;;5.33;3.00;;;;;13.23;77.18;100865.97;4950122;28;9267;-65
2022/10/16 03:23:45;;;;;;;;;2.00;2.00;;;;;13.23;77.56;100877.63;4952161;28;9193;-65
2022/10/16 03:26:11;;;;;;;;;9.00;7.33;;;;;13.21;77.40;100876.16;4948218;29;11367;-65
2022/10/16 03:28:37;;;;;;;;;3.67;3.67;;;;;13.21;77.41;100876.16;4940204;28;9345;-65
2022/10/16 03:31:04;;;;;;;;;5.00;5.00;;;;;13.21;77.26;100876.16;4933445;29;10114;-65
2022/10/16 03:33:31;;;;;;;;;4.00;4.00;;;;;13.22;77.26;100880.50;4932890;29;9186;-65
2022/10/16 03:35:58;;;;;;;;;2.00;2.00;;;;;13.16;77.31;100882.16;4952113;28;9342;-65
2022/10/16 03:38:24;;;;;;;;;5.00;5.00;;;;;13.17;77.38;100877.63;4960034;28;9321;-64
2022/10/16 03:40:51;;;;;;;;;4.33;4.33;;;;;13.21;77.61;100881.56;4939764;28;10141;-65
2022/10/16 03:43:17;;;;;;;;;2.00;2.00;;;;;13.18;77.31;100876.56;4939765;28;9337;-66
2022/10/16 03:45:43;;;;;;;;;6.00;6.00;;;;;13.16;77.33;100895.69;4937191;29;9255;-64
2022/10/16 03:48:10;;;;;;;;;2.00;2.00;;;;;13.14;77.42;100884.25;4945515;28;9355;-65
2022/10/16 03:50:37;;;;;;;;;4.33;4.33;;;;;13.11;77.51;100899.00;4948283;29;9197;-65
2022/10/16 03:53:04;;;;;;;;;5.33;5.33;;;;;13.10;77.71;100894.66;4951815;28;10137;-65
2022/10/16 03:55:30;;;;;;;;;2.00;2.00;;;;;13.13;77.65;100898.00;4944705;28;9258;-65
2022/10/16 03:57:56;;;;;;;;;2.00;2.00;;;;;13.07;77.64;100900.47;4950974;28;9212;-64
2022/10/16 04:00:23;;;;;;;;;2.00;2.00;;;;;13.05;77.58;100897.16;4937992;28;9281;-65
2022/10/16 04:02:49;;;;;;;;;3.33;2.00;;;;;13.08;77.67;100915.69;4951686;28;9197;-65
2022/10/16 04:05:15;;;;;;;;;4.67;4.67;;;;;13.05;77.98;100917.97;4950595;28;9270;-65
2022/10/16 04:07:42;;;;;;;;;5.33;2.67;;;;;13.06;78.05;100911.50;4950793;28;9219;-65
2022/10/16 04:10:08;;;;;;;;;5.00;2.67;;;;;13.02;78.05;100912.97;4939926;28;9342;-65
2022/10/16 04:12:35;;;;;;;;;4.00;4.00;;;;;13.05;78.32;100912.56;4935208;28;10105;-65
2022/10/16 04:15:02;;;;;;;;;1.00;1.00;;;;;13.12;78.18;100918.75;4941188;29;9153;-64
2022/10/16 04:17:28;;;;;;;;;3.00;3.00;;;;;13.08;78.01;100918.38;4948644;28;9268;-65
2022/10/16 04:19:55;;;;;;;;;2.00;2.00;;;;;13.10;78.08;100928.97;4953978;28;9387;-65
2022/10/16 04:22:21;;;;;;;;;2.00;2.00;;;;;13.11;77.82;100938.72;4954976;28;9245;-65
2022/10/16 04:24:48;;;;;;;;;1.00;1.00;;;;;13.09;78.11;100935.41;4954482;28;9180;-65
2022/10/16 04:27:14;;;;;;;;;2.00;2.00;;;;;13.11;78.51;100931.44;4950379;28;9089;-65
2022/10/16 04:29:40;;;;;;;;;2.00;2.00;;;;;13.17;78.45;100935.22;4951492;28;9218;-65
2022/10/16 04:32:08;;;;;;;;;3.00;2.00;;;;;13.14;78.20;100927.50;4952287;28;9198;-65
2022/10/16 04:34:35;;;;;;;;;3.00;3.00;;;;;13.17;78.14;100943.31;4951753;28;9239;-64
2022/10/16 04:37:01;;;;;;;;;2.00;2.00;;;;;13.17;77.97;100932.50;4962122;28;9414;-65
2022/10/16 04:39:27;;;;;;;;;2.00;1.67;;;;;13.14;77.94;100930.22;4949373;28;9212;-64
2022/10/16 04:41:54;;;;;;;;;2.00;1.00;;;;;13.13;78.33;100933.97;4954891;28;9915;-65
2022/10/16 04:44:20;;;;;;;;;1.33;1.33;;;;;13.17;78.15;100951.44;4950449;28;9268;-64
2022/10/16 04:46:47;;;;;;;;;0.67;0.00;;;;;13.18;78.26;100947.66;4942275;28;9213;-65
2022/10/16 04:49:13;;;;;;;;;1.67;1.67;;;;;13.16;78.15;100949.75;4938303;28;9077;-65
2022/10/16 04:51:40;;;;;;;;;3.00;2.67;;;;;13.18;77.88;100942.25;4937363;28;9810;-65
2022/10/16 04:54:06;;;;;;;;;4.67;2.00;;;;;13.11;78.06;100946.84;4948271;28;9211;-64
2022/10/16 04:56:32;;;;;;;;;1.67;1.67;;;;;13.13;78.03;100968.28;4950443;28;9306;-64
2022/10/16 04:58:59;;;;;;;;;2.33;1.00;;;;;13.13;78.36;100984.50;4947644;28;9161;-63
2022/10/16 05:01:28;;;;;;;;;1.33;1.33;;;;;13.11;78.53;100988.22;4952324;23;8917;31
2022/10/16 05:03:55;;;;;;;;;2.00;2.00;;;;;13.13;78.61;101000.69;4952742;28;8936;-65
2022/10/16 05:06:21;;;;;;;;;4.00;2.33;;;;;13.09;78.81;101002.97;4954058;28;8998;-65
2022/10/16 05:08:47;;;;;;;;;2.33;1.00;;;;;13.11;78.84;100999.03;4954151;28;9080;-65
2022/10/16 05:11:14;;;;;;;;;2.33;1.67;;;;;13.14;78.99;101005.06;4953199;28;9818;-65
2022/10/16 05:13:40;;;;;;;;;1.33;1.33;;;;;13.09;79.26;101011.09;4933470;28;9090;-67
2022/10/16 05:16:07;;;;;;;;;1.00;1.00;;;;;13.08;79.38;101012.97;4931558;29;8941;-67
2022/10/16 05:18:33;;;;;;;;;2.00;2.00;;;;;13.10;79.93;101007.34;4934156;29;9111;-67
2022/10/16 05:21:00;;;;;;;;;1.00;1.00;;;;;13.09;79.97;101008.38;4934589;29;9179;-66
2022/10/16 05:23:26;;;;;;;;;2.00;2.00;;;;;13.07;80.11;101013.97;4931815;29;9024;-66
2022/10/16 05:25:55;;;;;;;;;2.00;2.00;;;;;13.03;80.67;101011.91;4948633;29;9189;-66
2022/10/16 05:28:21;;;;;;;;;1.00;1.00;;;;;13.04;80.40;101011.69;4935091;29;9104;-66
2022/10/16 05:30:48;;;;;;;;;1.00;1.00;;;;;13.06;80.66;101011.50;4933222;29;8968;-65
2022/10/16 05:33:14;;;;;;;;;2.00;1.00;;;;;13.00;80.79;101023.13;4936536;29;9656;-66
2022/10/16 05:35:41;;;;;;;;;1.00;1.00;;;;;13.00;81.00;101023.94;4938195;29;9123;-68
2022/10/16 05:38:07;;;;;;;;;1.00;1.00;;;;;13.02;81.13;101029.16;4937238;29;9729;-66
2022/10/16 05:40:34;;;;;;;;;4.00;2.00;;;;;12.97;81.16;101037.88;4936916;29;9085;-65
2022/10/16 05:43:00;;;;;;;;;1.00;1.00;;;;;12.97;81.30;101045.16;4933958;29;9134;-65
2022/10/16 05:45:27;;;;;;;;;1.33;1.33;;;;;13.00;81.44;101047.44;4930509;29;9792;-64
2022/10/16 05:47:53;;;;;;;;;2.00;1.00;;;;;13.01;81.36;101054.53;4949277;29;9271;-67
2022/10/16 05:50:19;;;;;;;;;2.00;2.00;;;;;13.02;81.24;101048.06;4934161;29;9111;-66
2022/10/16 05:52:46;;;;;;;;;2.00;2.00;;;;;13.00;81.37;101052.84;4932575;29;9156;-67
2022/10/16 05:55:12;;;;;;;;;1.67;1.67;;;;;12.99;81.62;101049.31;4930259;29;9172;-66
2022/10/16 05:57:39;;;;;;;;;1.00;1.00;;;;;12.98;81.44;101053.06;4934208;29;9287;-66
2022/10/16 06:00:05;;;;;;;;;2.00;2.00;;;;;13.01;81.73;101054.53;4931102;29;9072;-66
2022/10/16 06:02:38;;;;;;;;;1.00;1.00;;;;;13.03;81.33;101055.13;4933137;29;9254;-66
2022/10/16 06:05:04;;;;;;;;;3.00;3.00;;;;;12.95;81.46;101055.34;4933631;29;9175;-67
2022/10/16 06:07:34;;;;;;;;;4.67;2.33;;;;;12.95;81.89;101055.34;4933776;29;9399;-66
2022/10/16 06:10:00;;;;;;;;;2.00;2.00;;;;;12.94;82.08;101045.56;4929312;29;9216;-66
2022/10/16 06:12:27;;;;;;;;;2.00;2.00;;;;;12.98;81.94;101047.66;4929950;29;9189;-66
2022/10/16 06:14:53;;;;;;;;;1.67;1.33;;;;;13.00;81.95;101044.72;4933805;29;9181;-65
2022/10/16 06:17:20;;;;;;;;;3.00;2.33;;;;;12.97;81.94;101040.59;4932484;29;9825;-67
2022/10/16 06:19:46;;;;;;;;;2.00;2.00;;;;;12.97;82.23;101045.16;4945216;28;9186;-67
2022/10/16 06:22:13;;;;;;;;;1.00;1.00;;;;;12.99;82.21;101048.47;4914900;29;9278;-65
2022/10/16 06:24:39;;;;;;;;;1.33;1.33;;;;;13.02;82.28;101054.31;4928205;29;9128;-66
2022/10/16 06:27:06;;;;;;;;;2.67;2.00;;;;;13.04;82.22;101056.78;4932739;29;9227;-65
2022/10/16 06:29:32;;;;;;;;;1.00;1.00;;;;;13.01;82.19;101057.22;4933375;29;9176;-64
2022/10/16 06:31:59;;;;;;;;;2.67;2.67;;;;;13.01;82.02;101070.75;4928632;29;9306;-68
2022/10/16 06:34:25;;;;;;;;;1.33;1.33;;;;;12.95;82.52;101058.88;4930711;29;9388;-66
2022/10/16 06:36:52;;;;;;;;;2.33;2.33;;;;;13.00;82.53;101083.41;4920036;29;9943;-65
2022/10/16 06:39:18;;;;;;;;;2.00;2.00;;;;;12.97;82.57;101086.53;4930564;29;9329;-67
2022/10/16 06:41:44;;;;;;;;;2.33;2.00;;;;;12.98;82.70;101080.09;4932652;29;9121;-66
2022/10/16 06:44:14;;;;;;;;;3.00;3.00;;;;;12.98;82.66;101084.66;4930924;29;9172;-64
2022/10/16 06:46:41;;;;;;;;;2.00;2.00;;;;;13.01;82.81;101090.50;4931420;29;9232;-65
2022/10/16 06:49:07;;;;;;;;;1.33;1.33;;;;;13.04;82.94;101089.22;4933342;29;9254;-64
2022/10/16 06:51:36;;;;;;;;;1.00;1.00;;;;;13.08;82.72;101096.75;4931889;29;9229;-66
2022/10/16 06:54:07;;;;;;;;;3.00;3.00;;;;;13.02;82.48;101097.56;4933617;28;9164;-66
2022/10/16 06:56:34;;;;;;;;;3.67;2.00;;;;;13.03;82.62;101101.91;4932995;29;9252;-66
2022/10/16 06:59:01;;;;;;;;;2.00;1.00;;;;;13.03;82.94;101104.63;4932119;29;9986;-66
2022/10/16 07:01:28;;;;;;;;;3.67;3.67;;;;;13.06;82.72;101108.78;4932741;29;9244;-67
2022/10/16 07:03:54;;;;;;;;;2.00;2.00;;;;;13.08;82.55;101121.06;4921729;29;9205;-66
2022/10/16 07:06:23;;;;;;;;;2.33;2.33;;;;;13.08;82.49;101125.63;4919165;29;9188;-65
2022/10/16 07:08:50;;;;;;;;;4.00;3.33;;;;;13.09;82.56;101132.72;4932765;29;9209;-66
2022/10/16 07:11:19;;;;;;;;;4.67;2.67;;;;;13.09;82.58;101130.00;4931138;29;9215;-65
2022/10/16 07:13:46;;;;;;;;;2.67;1.67;;;;;13.09;82.25;101132.72;4930090;29;9258;-66
2022/10/16 07:16:23;;;;;;;;;2.33;2.33;;;;;13.07;82.58;101140.19;4931912;29;9889;-67
2022/10/16 07:18:52;;;;;;;;;3.00;3.00;;;;;13.08;82.32;101147.25;4927468;29;9381;-67
2022/10/16 07:21:25;;;;;;;;;4.67;2.00;;;;;13.03;82.19;101157.84;4930784;29;9325;-66
2022/10/16 07:23:53;;;;;;;;;1.33;1.33;;;;;13.04;82.29;101156.78;4931400;29;9195;-67
2022/10/16 07:26:20;;;;;;;;;1.00;1.00;;;;;13.06;82.16;101166.38;4929186;29;9266;-66
2022/10/16 07:28:47;;;;;;;;;3.67;2.00;;;;;13.09;81.77;101173.25;4930079;29;9157;-65
2022/10/16 07:31:14;;;;;;;;;1.67;1.67;;;;;13.07;81.75;101172.59;4927718;29;9343;-67
2022/10/16 07:33:44;;;;;;;;;2.67;2.67;;;;;13.05;81.56;101182.81;4932429;29;9255;-65
2022/10/16 07:36:12;;;;;;;;;4.00;3.00;;;;;13.09;81.96;101184.91;4932610;29;9268;-66
2022/10/16 07:38:42;;;;;;;;;2.00;2.00;;;;;13.10;81.78;101188.44;4927781;29;9243;-65
2022/10/16 07:41:11;;;;;;;;;2.00;1.67;;;;;13.09;81.58;101187.59;4927499;29;9328;-65
2022/10/16 07:43:37;;;;;;;;;2.33;0.33;;;;;13.08;81.47;101191.34;4924803;29;9270;-68
2022/10/16 07:46:04;;;;;;;;;2.33;1.33;;;;;13.11;81.63;101198.19;4932721;29;9167;-66
2022/10/16 07:48:34;;;;;;;;;0.00;0.00;;;;;13.14;81.46;101205.06;4932734;29;8999;-67
2022/10/16 07:51:03;;;;;;;;;1.00;1.00;;;;;13.13;81.66;101215.06;4930299;29;9021;-65
2022/10/16 07:53:30;;;;;;;;;1.00;1.00;;;;;13.21;81.18;101222.16;4932151;29;9189;-66
2022/10/16 07:56:05;;;;;;;;;1.00;1.00;;;;;13.20;81.06;101218.59;4934354;29;9005;-65
2022/10/16 07:58:33;;;;;;;;;2.00;2.00;;;;;13.24;80.94;101222.59;4935165;29;9174;-65
2022/10/16 08:01:04;;;;;;;;;2.67;1.67;;;;;13.21;81.05;101225.69;4933914;29;9205;-65
2022/10/16 08:03:31;;;;;;;;;2.33;2.33;;;;;13.23;80.74;101239.03;4933583;29;9001;-66
2022/10/16 08:05:58;;;;;;;;;0.67;0.67;;;;;13.32;80.68;101227.00;4935823;29;9017;-67
2022/10/16 08:08:25;;;;;;;;;2.33;2.00;;;;;13.38;80.44;101241.59;4936058;29;9011;-66
2022/10/16 08:10:52;;;;;;;;;3.00;1.67;;;;;13.47;79.74;101252.00;4934780;29;9058;-65
2022/10/16 08:13:18;;;;;;;;;1.00;1.00;;;;;13.52;79.94;101251.41;4934454;29;9114;-65
2022/10/16 08:15:45;;;;;;;;;1.67;1.00;;;;;13.54;79.72;101246.63;4935321;29;9751;-65
2022/10/16 08:18:14;;;;;;;;;2.00;1.00;;;;;13.58;79.78;101250.59;4933940;29;9106;-66
2022/10/16 08:20:42;;;;;;;;;2.67;2.67;;;;;13.65;79.61;101259.53;4935500;29;9718;-67
2022/10/16 08:23:13;;;;;;;;;2.00;1.00;;;;;13.68;79.70;101256.44;4935843;29;9081;-67
2022/10/16 08:25:40;;;;;;;;;3.33;2.33;;;;;13.69;79.60;101252.69;4935788;29;9052;-70
2022/10/16 08:28:09;;;;;;;;;2.00;2.00;;;;;13.78;79.67;101270.41;4934634;29;9092;-67
2022/10/16 08:30:35;;;;;;;;;1.00;1.00;;;;;13.82;79.33;101262.72;4935379;29;9489;-67
2022/10/16 08:33:02;;;;;;;;;5.00;3.00;;;;;13.79;79.45;101269.38;4934439;29;9019;-68
2022/10/16 08:35:29;;;;;;;;;2.00;2.00;;;;;13.80;79.65;101265.63;4935770;29;9192;-68
2022/10/16 08:37:56;;;;;;;;;1.00;1.00;;;;;13.84;79.53;101272.28;4934633;28;9047;-69
2022/10/16 08:40:26;;;;;;;;;2.00;2.00;;;;;13.85;79.50;101275.81;4935261;29;8923;-69
2022/10/16 08:43:11;;;;;;;;;3.00;3.00;;;;;13.92;79.46;101287.50;4934908;29;8829;-68
2022/10/16 08:45:50;;;;;;;;;3.00;2.00;;;;;13.92;79.34;101289.38;4932052;29;9025;-68
2022/10/16 08:48:43;;;;;;;;;2.00;2.00;;;;;13.96;79.38;101290.63;4927681;28;9021;-67
2022/10/16 08:51:19;;;;;;;;;2.00;2.00;;;;;14.01;79.02;101301.66;4924763;29;9095;-68
2022/10/16 08:53:56;;;;;;;;;2.33;1.67;;;;;14.03;79.18;101302.31;4934139;29;8995;-69
2022/10/16 08:56:24;;;;;;;;;2.00;2.00;;;;;14.12;79.12;101308.34;4932699;29;9106;-69
2022/10/16 08:58:52;;;;;;;;;2.00;2.00;;;;;14.17;78.82;101316.69;4931401;29;8937;-69
2022/10/16 09:01:34;;;;;;;;;6.00;3.00;;;;;14.20;79.02;101321.69;4926779;29;8933;-69
2022/10/16 09:04:38;;;;;;;;;1.75;1.75;;;;;14.19;78.73;101331.69;4933807;29;9016;-68
2022/10/16 09:07:16;;;;;;;;;2.00;2.00;;;;;14.27;78.74;101334.22;4934403;29;8833;-68
2022/10/16 09:10:07;;;;;;;;;3.50;3.00;;;;;14.21;78.54;101345.84;4934904;29;9553;-68
2022/10/16 09:12:43;;;;;;;;;2.00;2.00;;;;;14.30;78.42;101341.06;4924342;29;8842;-70
2022/10/16 09:15:21;;;;;;;;;4.25;3.00;;;;;14.34;78.42;101337.78;4933581;29;8841;-68
2022/10/16 09:18:09;;;;;;;;;0.75;0.75;;;;;14.42;78.20;101341.28;4933515;29;8838;-68
2022/10/16 09:20:48;;;;;;;;;1.25;1.25;;;;;14.42;77.85;101349.41;4929455;29;8837;-69
2022/10/16 09:23:29;;;;;;;;;2.25;2.25;;;;;14.42;77.80;101353.00;4934488;29;9580;-68
2022/10/16 09:25:58;;;;;;;;;1.25;1.00;;;;;14.35;77.60;101355.69;4946520;28;8941;-69
2022/10/16 09:28:25;;;;;;;;;1.33;1.00;;;;;14.41;77.10;101355.88;4934503;29;8878;-69
2022/10/16 09:30:51;;;;;;;;;0.00;0.00;;;;;14.45;77.32;101370.69;4934286;29;8983;-69
2022/10/16 09:33:23;;;;;;;;;2.25;2.00;;;;;14.54;77.17;101377.59;4933197;29;8876;-67
2022/10/16 09:35:54;;;;;;;;;1.25;1.25;;;;;14.59;76.90;101364.28;4927319;29;8919;-68
2022/10/16 09:38:32;;;;;;;;;2.00;2.00;;;;;14.63;76.08;101373.66;4931949;29;8908;-68
2022/10/16 09:41:01;;;;;;;;;3.50;1.75;;;;;14.64;75.94;101367.19;4924104;29;8912;-68
2022/10/16 09:43:41;;;;;;;;;2.00;2.00;;;;;14.69;76.16;101377.41;4927157;29;8860;-69
2022/10/16 09:46:26;;;;;;;;;1.75;1.00;;;;;14.64;75.88;101382.63;4931257;29;9597;-68
2022/10/16 09:48:56;;;;;;;;;2.25;1.50;;;;;14.63;76.11;101379.06;4931869;29;8846;-68
2022/10/16 09:51:37;;;;;;;;;1.50;1.25;;;;;14.62;75.89;101379.25;4932361;29;8846;-67
2022/10/16 09:54:06;;;;;;;;;2.00;2.00;;;;;14.68;75.89;101375.75;4932416;29;8924;-68
2022/10/16 09:56:56;;;;;;;;;3.25;1.25;;;;;14.72;75.55;101377.00;4933284;29;8908;-68
2022/10/16 09:59:26;;;;;;;;;1.00;1.00;;;;;14.77;75.30;101375.31;4925845;29;8899;-68
2022/10/16 10:01:54;;;;;;;;;1.50;1.00;;;;;14.76;74.68;101379.06;4933013;29;8865;-68
2022/10/16 10:04:23;;;;;;;;;2.00;1.00;;;;;14.73;74.80;101389.50;4930281;28;8845;-68
2022/10/16 10:06:55;;;;;;;;;1.50;1.00;;;;;14.84;74.52;101384.28;4948738;28;8845;-69
2022/10/16 10:09:39;;;;;;;;;2.50;2.00;;;;;14.88;74.20;101390.13;4933974;28;8877;-67
2022/10/16 10:12:17;;;;;;;;;5.50;2.75;;;;;14.82;74.11;101391.78;4933036;29;8879;-67
2022/10/16 10:14:50;;;;;;;;;1.25;1.25;;;;;14.83;73.55;101388.03;4932307;29;8841;-68
2022/10/16 10:17:22;;;;;;;;;1.00;1.00;;;;;14.92;73.71;101383.25;4940941;28;8877;-66
2022/10/16 10:19:56;;;;;;;;;2.00;1.00;;;;;14.99;73.52;101383.22;4932535;29;8818;-66
2022/10/16 10:22:39;;;;;;;;;1.00;1.00;;;;;15.08;73.24;101398.25;4929715;29;8952;-67
2022/10/16 10:25:08;;;;;;;;;2.00;1.00;;;;;15.10;72.92;101409.69;4931488;28;9947;-67
2022/10/16 10:27:54;;;;;;;;;1.00;1.00;;;;;15.18;71.86;101403.22;4932211;29;8906;-67
2022/10/16 10:30:37;;;;;;;;;0.50;0.25;;;;;15.18;70.84;101412.19;4932632;29;8842;-69
2022/10/16 10:33:12;;;;;;;;;1.00;1.00;;;;;15.27;70.41;101419.09;4927947;28;9786;-67
2022/10/16 10:36:02;;;;;;;;;0.25;0.25;;;;;15.40;70.80;101420.94;4934239;28;8835;-69
2022/10/16 10:38:52;;;;;;;;;1.00;1.00;;;;;15.37;70.17;101417.81;4932738;29;9560;-68
2022/10/16 10:41:18;;;;;;;;;2.00;0.00;;;;;15.31;68.54;101424.88;4932036;29;8872;-69
2022/10/16 10:43:55;;;;;;;;;1.50;1.00;;;;;15.31;68.33;101425.75;4929910;29;8958;-69
2022/10/16 10:46:49;;;;;;;;;0.50;0.50;;;;;15.34;67.97;101432.63;4947040;28;8872;-68
2022/10/16 10:49:36;;;;;;;;;1.75;1.00;;;;;15.31;67.27;101450.16;4931104;29;8853;-69
2022/10/16 10:52:40;;;;;;;;;0.25;0.25;;;;;15.18;65.52;101436.59;4927323;29;8876;-69
2022/10/16 10:55:18;;;;;;;;;1.00;1.00;;;;;15.28;65.49;101442.44;4931097;29;8859;-69
2022/10/16 10:58:26;;;;;;;;;1.00;1.00;;;;;15.34;66.07;101433.44;4923574;29;8875;-66
2022/10/16 11:01:22;;;;;;;;;2.25;1.75;;;;;15.34;65.88;101452.44;4927819;29;8945;-69
2022/10/16 11:04:29;;;;;;;;;0.75;0.75;;;;;15.34;65.36;101449.72;4927844;29;8933;-69
2022/10/16 11:07:02;;;;;;;;;0.00;0.00;;;;;15.42;65.50;101445.13;4929340;29;8875;-69
2022/10/16 11:09:36;;;;;;;;;1.00;1.00;;;;;15.46;65.60;101443.66;4929038;29;9533;-69
2022/10/16 11:12:18;;;;;;;;;0.00;0.00;;;;;15.50;65.23;101451.16;4927278;29;8910;-69
2022/10/16 11:14:54;;;;;;;;;0.75;0.50;;;;;15.53;65.41;101464.31;4931380;29;8849;-68
2022/10/16 11:17:30;;;;;;;;;2.00;1.00;;;;;15.56;64.62;101460.34;4929361;29;8869;-67
2022/10/16 11:20:15;;;;;;;;;0.00;0.00;;;;;15.67;63.95;101456.16;4930785;29;8899;-69
2022/10/16 11:22:51;;;;;;;;;0.00;0.00;;;;;15.71;63.29;101457.41;4942311;28;8860;-68
2022/10/16 11:25:30;;;;;;;;;0.50;0.50;;;;;15.71;62.06;101462.81;4924726;29;8879;-69
2022/10/16 11:28:01;;;;;;;;;0.00;0.00;;;;;15.62;61.16;101459.47;4931693;29;8875;-69
2022/10/16 11:30:30;;;;;;;;;0.50;0.50;;;;;15.65;60.08;101469.13;4930971;29;8841;-68
2022/10/16 11:33:09;;;;;;;;;1.75;1.00;;;;;15.72;60.69;101465.34;4936232;29;8857;-67
2022/10/16 11:35:42;;;;;;;;;1.00;0.75;;;;;15.82;61.56;101473.88;4932306;29;8872;-69
2022/10/16 11:38:17;;;;;;;;;0.00;0.00;;;;;15.71;59.76;101479.13;4934632;29;8942;-68
2022/10/16 11:40:50;;;;;;;;;0.25;0.25;;;;;15.71;58.57;101477.22;4949999;29;8845;-70
2022/10/16 11:43:28;;;;;;;;;1.00;0.00;;;;;15.81;58.83;101479.53;4934789;29;8875;-68
2022/10/16 11:46:01;;;;;;;;;0.00;0.00;;;;;15.82;58.32;101476.56;4932767;29;8881;-69
2022/10/16 11:48:54;;;;;;;;;0.00;0.00;;;;;15.90;58.02;101480.94;4936451;29;8849;-68
2022/10/16 11:51:33;;;;;;;;;0.00;0.00;;;;;15.95;58.15;101483.00;4933643;29;9592;-68
2022/10/16 11:54:45;;;;;;;;;1.50;1.00;;;;;16.04;58.35;101476.28;4934953;29;8963;-68